sensor_id;sensor_type;location;lat;lon;timestamp;temperature;humidity
27978;DHT22;15314;49.248;6.968;2023-02-01T00:00:47;6.20;99.90
27978;DHT22;15314;49.248;6.968;2023-02-01T00:01:47;6.20;99.90
27978;DHT22;15314;49.248;6.968;2023-02-01T00:02:48;6.20;99.90
27978;DHT22;15314;49.248;6.968;2023-02-01T00:03:49;6.30;99.90
27978;DHT22;15314;49.248;6.968;2023-02-01T00:04:49;6.30;99.90
27978;DHT22;15314;49.248;6.968;2023-02-01T00:05:59;6.20;99.90
27978;DHT22;15314;49.248;6.968;2023-02-01T00:07:00;6.30;99.90
27978;DHT22;15314;49.248;6.968;2023-02-01T00:08:01;6.20;99.90
27978;DHT22;15314;49.248;6.968;2023-02-01T00:09:02;6.20;99.90
27978;DHT22;15314;49.248;6.968;2023-02-01T00:10:04;6.20;99.90
27978;DHT22;15314;49.248;6.968;2023-02-01T00:11:07;6.30;99.90
27978;DHT22;15314;49.248;6.968;2023-02-01T00:12:08;6.30;99.90
27978;DHT22;15314;49.248;6.968;2023-02-01T00:13:09;6.40;99.90
27978;DHT22;15314;49.248;6.968;2023-02-01T00:14:09;6.40;99.90
27978;DHT22;15314;49.248;6.968;2023-02-01T00:15:10;6.30;99.90
27978;DHT22;15314;49.248;6.968;2023-02-01T00:16:19;6.30;99.90
27978;DHT22;15314;49.248;6.968;2023-02-01T00:17:20;6.30;99.90
27978;DHT22;15314;49.248;6.968;2023-02-01T00:18:21;6.20;99.90
27978;DHT22;15314;49.248;6.968;2023-02-01T00:19:22;6.20;99.90
27978;DHT22;15314;49.248;6.968;2023-02-01T00:20:22;6.20;99.90
27978;DHT22;15314;49.248;6.968;2023-02-01T00:21:23;6.20;99.90
27978;DHT22;15314;49.248;6.968;2023-02-01T00:22:24;6.20;99.90
27978;DHT22;15314;49.248;6.968;2023-02-01T00:23:25;6.20;99.90
27978;DHT22;15314;49.248;6.968;2023-02-01T00:24:26;6.20;99.90
27978;DHT22;15314;49.248;6.968;2023-02-01T00:25:26;6.20;99.90
27978;DHT22;15314;49.248;6.968;2023-02-01T00:26:37;6.20;99.90
27978;DHT22;15314;49.248;6.968;2023-02-01T00:27:38;6.20;99.90
27978;DHT22;15314;49.248;6.968;2023-02-01T00:28:39;6.20;99.90
27978;DHT22;15314;49.248;6.968;2023-02-01T00:29:39;6.10;99.90
27978;DHT22;15314;49.248;6.968;2023-02-01T00:30:40;6.10;99.90
27978;DHT22;15314;49.248;6.968;2023-02-01T00:31:40;6.10;99.90
27978;DHT22;15314;49.248;6.968;2023-02-01T00:32:41;6.00;99.90
27978;DHT22;15314;49.248;6.968;2023-02-01T00:33:42;6.00;99.90
27978;DHT22;15314;49.248;6.968;2023-02-01T00:34:43;6.10;99.90
27978;DHT22;15314;49.248;6.968;2023-02-01T00:35:43;6.00;99.90
27978;DHT22;15314;49.248;6.968;2023-02-01T00:36:45;6.10;99.90
27978;DHT22;15314;49.248;6.968;2023-02-01T00:37:45;6.10;99.90
27978;DHT22;15314;49.248;6.968;2023-02-01T00:38:46;6.10;99.90
27978;DHT22;15314;49.248;6.968;2023-02-01T00:39:46;6.10;99.90
27978;DHT22;15314;49.248;6.968;2023-02-01T00:40:47;6.10;99.90
27978;DHT22;15314;49.248;6.968;2023-02-01T00:41:48;6.10;99.90
27978;DHT22;15314;49.248;6.968;2023-02-01T00:42:48;6.00;99.90
27978;DHT22;15314;49.248;6.968;2023-02-01T00:43:50;6.10;99.90
27978;DHT22;15314;49.248;6.968;2023-02-01T00:44:51;6.10;99.90
27978;DHT22;15314;49.248;6.968;2023-02-01T00:45:51;6.10;99.90
27978;DHT22;15314;49.248;6.968;2023-02-01T00:46:52;6.10;99.90
27978;DHT22;15314;49.248;6.968;2023-02-01T00:47:52;6.10;99.90
27978;DHT22;15314;49.248;6.968;2023-02-01T00:48:54;6.10;99.90
27978;DHT22;15314;49.248;6.968;2023-02-01T00:49:54;6.20;99.90
27978;DHT22;15314;49.248;6.968;2023-02-01T00:51:06;6.20;99.90
27978;DHT22;15314;49.248;6.968;2023-02-01T00:52:07;6.20;99.90
27978;DHT22;15314;49.248;6.968;2023-02-01T00:53:09;6.30;99.90
27978;DHT22;15314;49.248;6.968;2023-02-01T00:54:09;6.30;99.90
27978;DHT22;15314;49.248;6.968;2023-02-01T00:55:10;6.30;99.90
27978;DHT22;15314;49.248;6.968;2023-02-01T00:56:11;6.30;99.90
27978;DHT22;15314;49.248;6.968;2023-02-01T00:57:13;6.30;99.90
27978;DHT22;15314;49.248;6.968;2023-02-01T00:58:14;6.20;99.90
27978;DHT22;15314;49.248;6.968;2023-02-01T00:59:15;6.30;99.90
27978;DHT22;15314;49.248;6.968;2023-02-01T01:00:16;6.30;99.90
27978;DHT22;15314;49.248;6.968;2023-02-01T01:01:23;6.40;99.90
27978;DHT22;15314;49.248;6.968;2023-02-01T01:02:26;6.40;99.90
27978;DHT22;15314;49.248;6.968;2023-02-01T01:03:26;6.30;99.90
27978;DHT22;15314;49.248;6.968;2023-02-01T01:04:27;6.30;99.90
27978;DHT22;15314;49.248;6.968;2023-02-01T01:05:28;6.30;99.90
27978;DHT22;15314;49.248;6.968;2023-02-01T01:06:34;6.20;99.90
27978;DHT22;15314;49.248;6.968;2023-02-01T01:07:35;6.20;99.90
27978;DHT22;15314;49.248;6.968;2023-02-01T01:08:36;6.20;99.90
27978;DHT22;15314;49.248;6.968;2023-02-01T01:09:37;6.10;99.90
27978;DHT22;15314;49.248;6.968;2023-02-01T01:10:37;6.10;99.90
27978;DHT22;15314;49.248;6.968;2023-02-01T01:11:38;6.10;99.90
27978;DHT22;15314;49.248;6.968;2023-02-01T01:12:39;6.10;99.90
27978;DHT22;15314;49.248;6.968;2023-02-01T01:13:40;6.10;99.90
27978;DHT22;15314;49.248;6.968;2023-02-01T01:14:40;6.20;99.90
27978;DHT22;15314;49.248;6.968;2023-02-01T01:15:41;6.20;99.90
27978;DHT22;15314;49.248;6.968;2023-02-01T01:16:42;6.30;99.90
27978;DHT22;15314;49.248;6.968;2023-02-01T01:17:43;6.30;99.90
27978;DHT22;15314;49.248;6.968;2023-02-01T01:18:44;6.40;99.90
27978;DHT22;15314;49.248;6.968;2023-02-01T01:19:44;6.30;99.90
27978;DHT22;15314;49.248;6.968;2023-02-01T01:20:45;6.30;99.90
27978;DHT22;15314;49.248;6.968;2023-02-01T01:21:45;6.20;99.90
27978;DHT22;15314;49.248;6.968;2023-02-01T01:22:46;6.30;99.90
27978;DHT22;15314;49.248;6.968;2023-02-01T01:23:47;6.20;99.90
27978;DHT22;15314;49.248;6.968;2023-02-01T01:24:48;6.20;99.90
27978;DHT22;15314;49.248;6.968;2023-02-01T01:25:49;6.20;99.90
27978;DHT22;15314;49.248;6.968;2023-02-01T01:26:49;6.20;99.90
27978;DHT22;15314;49.248;6.968;2023-02-01T01:27:50;6.20;99.90
27978;DHT22;15314;49.248;6.968;2023-02-01T01:28:51;6.20;99.90
27978;DHT22;15314;49.248;6.968;2023-02-01T01:29:52;6.20;99.90
27978;DHT22;15314;49.248;6.968;2023-02-01T01:30:52;6.20;99.90
27978;DHT22;15314;49.248;6.968;2023-02-01T01:31:53;6.20;99.90
27978;DHT22;15314;49.248;6.968;2023-02-01T01:32:54;6.30;99.90
27978;DHT22;15314;49.248;6.968;2023-02-01T01:33:56;6.20;99.90
27978;DHT22;15314;49.248;6.968;2023-02-01T01:34:57;6.10;99.90
27978;DHT22;15314;49.248;6.968;2023-02-01T01:35:57;6.20;99.90
27978;DHT22;15314;49.248;6.968;2023-02-01T01:36:58;6.20;99.90
27978;DHT22;15314;49.248;6.968;2023-02-01T01:37:59;6.20;99.90
27978;DHT22;15314;49.248;6.968;2023-02-01T01:39:00;6.20;99.90
27978;DHT22;15314;49.248;6.968;2023-02-01T01:40:00;6.20;99.90
27978;DHT22;15314;49.248;6.968;2023-02-01T01:41:01;6.20;99.90
27978;DHT22;15314;49.248;6.968;2023-02-01T01:42:02;6.20;99.90
27978;DHT22;15314;49.248;6.968;2023-02-01T01:43:03;6.20;99.90
27978;DHT22;15314;49.248;6.968;2023-02-01T01:44:05;6.30;99.90
27978;DHT22;15314;49.248;6.968;2023-02-01T01:45:33;6.30;99.90
27978;DHT22;15314;49.248;6.968;2023-02-01T01:46:38;6.30;99.90
27978;DHT22;15314;49.248;6.968;2023-02-01T01:47:48;6.30;99.90
27978;DHT22;15314;49.248;6.968;2023-02-01T01:49:03;6.30;99.90
27978;DHT22;15314;49.248;6.968;2023-02-01T01:50:07;6.40;99.90
27978;DHT22;15314;49.248;6.968;2023-02-01T01:51:13;6.40;99.90
27978;DHT22;15314;49.248;6.968;2023-02-01T01:52:14;6.40;99.90
27978;DHT22;15314;49.248;6.968;2023-02-01T01:53:20;6.50;99.90
27978;DHT22;15314;49.248;6.968;2023-02-01T01:55:22;6.40;99.90
27978;DHT22;15314;49.248;6.968;2023-02-01T01:56:25;6.40;99.90
27978;DHT22;15314;49.248;6.968;2023-02-01T01:57:31;6.40;99.90
27978;DHT22;15314;49.248;6.968;2023-02-01T01:58:33;6.50;99.90
27978;DHT22;15314;49.248;6.968;2023-02-01T01:59:36;6.50;99.90
27978;DHT22;15314;49.248;6.968;2023-02-01T02:00:38;6.50;99.90
27978;DHT22;15314;49.248;6.968;2023-02-01T02:01:39;6.50;99.90
27978;DHT22;15314;49.248;6.968;2023-02-01T02:02:42;6.50;99.90
27978;DHT22;15314;49.248;6.968;2023-02-01T02:03:44;6.40;99.90
27978;DHT22;15314;49.248;6.968;2023-02-01T02:04:48;6.50;99.90
27978;DHT22;15314;49.248;6.968;2023-02-01T02:05:50;6.40;99.90
27978;DHT22;15314;49.248;6.968;2023-02-01T02:07:00;6.40;99.90
27978;DHT22;15314;49.248;6.968;2023-02-01T02:08:02;6.40;99.90
27978;DHT22;15314;49.248;6.968;2023-02-01T02:09:03;6.50;99.90
27978;DHT22;15314;49.248;6.968;2023-02-01T02:10:06;6.60;99.90
27978;DHT22;15314;49.248;6.968;2023-02-01T02:11:07;6.60;99.90
27978;DHT22;15314;49.248;6.968;2023-02-01T02:12:09;6.60;99.90
27978;DHT22;15314;49.248;6.968;2023-02-01T02:13:10;6.70;99.90
27978;DHT22;15314;49.248;6.968;2023-02-01T02:14:14;6.70;99.90
27978;DHT22;15314;49.248;6.968;2023-02-01T02:15:16;6.60;99.90
27978;DHT22;15314;49.248;6.968;2023-02-01T02:24:28;6.50;99.90
27978;DHT22;15314;49.248;6.968;2023-02-01T02:25:54;6.60;99.90
27978;DHT22;15314;49.248;6.968;2023-02-01T02:33:52;6.70;99.90
27978;DHT22;15314;49.248;6.968;2023-02-01T02:35:02;6.70;99.90
27978;DHT22;15314;49.248;6.968;2023-02-01T02:37:41;6.60;99.90
27978;DHT22;15314;49.248;6.968;2023-02-01T02:38:58;6.60;99.90
27978;DHT22;15314;49.248;6.968;2023-02-01T02:41:39;6.60;99.90
27978;DHT22;15314;49.248;6.968;2023-02-01T02:43:05;6.70;99.90
27978;DHT22;15314;49.248;6.968;2023-02-01T02:46:23;6.50;99.90
27978;DHT22;15314;49.248;6.968;2023-02-01T02:47:51;6.50;99.90
27978;DHT22;15314;49.248;6.968;2023-02-01T02:49:18;6.60;99.90
27978;DHT22;15314;49.248;6.968;2023-02-01T02:50:32;6.50;99.90
27978;DHT22;15314;49.248;6.968;2023-02-01T02:51:56;6.50;99.90
27978;DHT22;15314;49.248;6.968;2023-02-01T02:53:23;6.50;99.90
27978;DHT22;15314;49.248;6.968;2023-02-01T02:54:47;6.50;99.90
27978;DHT22;15314;49.248;6.968;2023-02-01T02:55:51;6.50;99.90
27978;DHT22;15314;49.248;6.968;2023-02-01T02:56:53;6.50;99.90
27978;DHT22;15314;49.248;6.968;2023-02-01T02:58:15;6.60;99.90
27978;DHT22;15314;49.248;6.968;2023-02-01T02:59:35;6.60;99.90
27978;DHT22;15314;49.248;6.968;2023-02-01T03:00:55;6.60;99.90
27978;DHT22;15314;49.248;6.968;2023-02-01T03:02:16;6.50;99.90
27978;DHT22;15314;49.248;6.968;2023-02-01T03:03:39;6.50;99.90
27978;DHT22;15314;49.248;6.968;2023-02-01T03:04:58;6.50;99.90
27978;DHT22;15314;49.248;6.968;2023-02-01T03:05:59;6.40;99.90
27978;DHT22;15314;49.248;6.968;2023-02-01T03:07:14;6.40;99.90
27978;DHT22;15314;49.248;6.968;2023-02-01T03:08:21;6.40;99.90
27978;DHT22;15314;49.248;6.968;2023-02-01T03:09:35;6.40;99.90
27978;DHT22;15314;49.248;6.968;2023-02-01T03:11:47;6.30;99.90
27978;DHT22;15314;49.248;6.968;2023-02-01T03:13:13;6.30;99.90
27978;DHT22;15314;49.248;6.968;2023-02-01T03:14:15;6.30;99.90
27978;DHT22;15314;49.248;6.968;2023-02-01T03:15:17;6.30;99.90
27978;DHT22;15314;49.248;6.968;2023-02-01T03:16:36;6.30;99.90
27978;DHT22;15314;49.248;6.968;2023-02-01T03:17:41;6.30;99.90
27978;DHT22;15314;49.248;6.968;2023-02-01T03:19:53;6.30;99.90
27978;DHT22;15314;49.248;6.968;2023-02-01T03:20:55;6.30;99.90
27978;DHT22;15314;49.248;6.968;2023-02-01T03:22:01;6.30;99.90
27978;DHT22;15314;49.248;6.968;2023-02-01T03:23:03;6.30;99.90
27978;DHT22;15314;49.248;6.968;2023-02-01T03:24:31;6.30;99.90
27978;DHT22;15314;49.248;6.968;2023-02-01T03:25:35;6.30;99.90
27978;DHT22;15314;49.248;6.968;2023-02-01T03:26:38;6.30;99.90
27978;DHT22;15314;49.248;6.968;2023-02-01T03:28:14;6.20;99.90
27978;DHT22;15314;49.248;6.968;2023-02-01T03:29:18;6.20;99.90
27978;DHT22;15314;49.248;6.968;2023-02-01T03:30:27;6.20;99.90
27978;DHT22;15314;49.248;6.968;2023-02-01T03:31:29;6.30;99.90
27978;DHT22;15314;49.248;6.968;2023-02-01T03:32:29;6.20;99.90
27978;DHT22;15314;49.248;6.968;2023-02-01T03:33:50;6.20;99.90
27978;DHT22;15314;49.248;6.968;2023-02-01T03:34:51;6.20;99.90
27978;DHT22;15314;49.248;6.968;2023-02-01T03:36:18;6.20;99.90
27978;DHT22;15314;49.248;6.968;2023-02-01T03:37:26;6.20;99.90
27978;DHT22;15314;49.248;6.968;2023-02-01T03:39:59;6.30;99.90
27978;DHT22;15314;49.248;6.968;2023-02-01T03:42:25;6.40;99.90
27978;DHT22;15314;49.248;6.968;2023-02-01T03:43:29;6.40;99.90
27978;DHT22;15314;49.248;6.968;2023-02-01T03:44:35;6.40;99.90
27978;DHT22;15314;49.248;6.968;2023-02-01T03:45:41;6.40;99.90
27978;DHT22;15314;49.248;6.968;2023-02-01T03:46:57;6.50;99.90
27978;DHT22;15314;49.248;6.968;2023-02-01T03:48:00;6.50;99.90
27978;DHT22;15314;49.248;6.968;2023-02-01T03:49:05;6.40;99.90
27978;DHT22;15314;49.248;6.968;2023-02-01T03:50:10;6.50;99.90
27978;DHT22;15314;49.248;6.968;2023-02-01T03:51:12;6.40;99.90
27978;DHT22;15314;49.248;6.968;2023-02-01T03:52:18;6.40;99.90
27978;DHT22;15314;49.248;6.968;2023-02-01T03:53:23;6.40;99.90
27978;DHT22;15314;49.248;6.968;2023-02-01T03:54:27;6.40;99.90
27978;DHT22;15314;49.248;6.968;2023-02-01T03:55:28;6.40;99.90
27978;DHT22;15314;49.248;6.968;2023-02-01T03:56:31;6.40;99.90
27978;DHT22;15314;49.248;6.968;2023-02-01T03:57:35;6.40;99.90
27978;DHT22;15314;49.248;6.968;2023-02-01T03:58:37;6.40;99.90
27978;DHT22;15314;49.248;6.968;2023-02-01T03:59:42;6.40;99.90
27978;DHT22;15314;49.248;6.968;2023-02-01T04:01:51;6.40;99.90
27978;DHT22;15314;49.248;6.968;2023-02-01T04:02:53;6.40;99.90
27978;DHT22;15314;49.248;6.968;2023-02-01T04:03:55;6.50;99.90
27978;DHT22;15314;49.248;6.968;2023-02-01T04:04:55;6.40;99.90
27978;DHT22;15314;49.248;6.968;2023-02-01T04:05:56;6.40;99.90
27978;DHT22;15314;49.248;6.968;2023-02-01T04:06:56;6.40;99.90
27978;DHT22;15314;49.248;6.968;2023-02-01T04:07:57;6.50;99.90
27978;DHT22;15314;49.248;6.968;2023-02-01T04:08:58;6.50;99.90
27978;DHT22;15314;49.248;6.968;2023-02-01T04:09:59;6.50;99.90
27978;DHT22;15314;49.248;6.968;2023-02-01T04:10:59;6.50;99.90
27978;DHT22;15314;49.248;6.968;2023-02-01T04:12:00;6.50;99.90
27978;DHT22;15314;49.248;6.968;2023-02-01T04:13:01;6.50;99.90
27978;DHT22;15314;49.248;6.968;2023-02-01T04:14:01;6.50;99.90
27978;DHT22;15314;49.248;6.968;2023-02-01T04:15:05;6.50;99.90
27978;DHT22;15314;49.248;6.968;2023-02-01T04:16:05;6.50;99.90
27978;DHT22;15314;49.248;6.968;2023-02-01T04:17:06;6.40;99.90
27978;DHT22;15314;49.248;6.968;2023-02-01T04:18:07;6.40;99.90
27978;DHT22;15314;49.248;6.968;2023-02-01T04:19:07;6.40;99.90
27978;DHT22;15314;49.248;6.968;2023-02-01T04:20:08;6.40;99.90
27978;DHT22;15314;49.248;6.968;2023-02-01T04:21:09;6.40;99.90
27978;DHT22;15314;49.248;6.968;2023-02-01T04:22:10;6.40;99.90
27978;DHT22;15314;49.248;6.968;2023-02-01T04:23:10;6.40;99.90
27978;DHT22;15314;49.248;6.968;2023-02-01T04:24:11;6.40;99.90
27978;DHT22;15314;49.248;6.968;2023-02-01T04:25:11;6.40;99.90
27978;DHT22;15314;49.248;6.968;2023-02-01T04:26:13;6.40;99.90
27978;DHT22;15314;49.248;6.968;2023-02-01T04:27:13;6.50;99.90
27978;DHT22;15314;49.248;6.968;2023-02-01T04:28:14;6.50;99.90
27978;DHT22;15314;49.248;6.968;2023-02-01T04:29:14;6.50;99.90
27978;DHT22;15314;49.248;6.968;2023-02-01T04:30:15;6.40;99.90
27978;DHT22;15314;49.248;6.968;2023-02-01T04:31:17;6.50;99.90
27978;DHT22;15314;49.248;6.968;2023-02-01T04:32:18;6.50;99.90
27978;DHT22;15314;49.248;6.968;2023-02-01T04:33:20;6.40;99.90
27978;DHT22;15314;49.248;6.968;2023-02-01T04:34:20;6.50;99.90
27978;DHT22;15314;49.248;6.968;2023-02-01T04:35:22;6.50;99.90
27978;DHT22;15314;49.248;6.968;2023-02-01T04:36:23;6.50;99.90
27978;DHT22;15314;49.248;6.968;2023-02-01T04:37:24;6.40;99.90
27978;DHT22;15314;49.248;6.968;2023-02-01T04:38:25;6.50;99.90
27978;DHT22;15314;49.248;6.968;2023-02-01T04:39:25;6.40;99.90
27978;DHT22;15314;49.248;6.968;2023-02-01T04:40:26;6.50;99.90
27978;DHT22;15314;49.248;6.968;2023-02-01T04:41:27;6.50;99.90
27978;DHT22;15314;49.248;6.968;2023-02-01T04:42:27;6.60;99.90
27978;DHT22;15314;49.248;6.968;2023-02-01T04:43:28;6.60;99.90
27978;DHT22;15314;49.248;6.968;2023-02-01T04:44:29;6.60;99.90
27978;DHT22;15314;49.248;6.968;2023-02-01T04:45:30;6.60;99.90
27978;DHT22;15314;49.248;6.968;2023-02-01T04:46:31;6.50;99.90
27978;DHT22;15314;49.248;6.968;2023-02-01T04:47:31;6.50;99.90
27978;DHT22;15314;49.248;6.968;2023-02-01T04:48:32;6.50;99.90
27978;DHT22;15314;49.248;6.968;2023-02-01T04:49:32;6.50;99.90
27978;DHT22;15314;49.248;6.968;2023-02-01T04:50:34;6.50;99.90
27978;DHT22;15314;49.248;6.968;2023-02-01T04:51:34;6.50;99.90
27978;DHT22;15314;49.248;6.968;2023-02-01T04:52:35;6.60;99.90
27978;DHT22;15314;49.248;6.968;2023-02-01T04:53:36;6.50;99.90
27978;DHT22;15314;49.248;6.968;2023-02-01T04:54:37;6.50;99.90
27978;DHT22;15314;49.248;6.968;2023-02-01T04:55:38;6.50;99.90
27978;DHT22;15314;49.248;6.968;2023-02-01T04:56:39;6.50;99.90
27978;DHT22;15314;49.248;6.968;2023-02-01T04:57:40;6.60;99.90
27978;DHT22;15314;49.248;6.968;2023-02-01T04:58:40;6.50;99.90
27978;DHT22;15314;49.248;6.968;2023-02-01T04:59:41;6.50;99.90
27978;DHT22;15314;49.248;6.968;2023-02-01T05:00:42;6.60;99.90
27978;DHT22;15314;49.248;6.968;2023-02-01T05:01:43;6.60;99.90
27978;DHT22;15314;49.248;6.968;2023-02-01T05:02:44;6.60;99.90
27978;DHT22;15314;49.248;6.968;2023-02-01T05:03:47;6.60;99.90
27978;DHT22;15314;49.248;6.968;2023-02-01T05:04:48;6.50;99.90
27978;DHT22;15314;49.248;6.968;2023-02-01T05:05:48;6.50;99.90
27978;DHT22;15314;49.248;6.968;2023-02-01T05:06:49;6.50;99.90
27978;DHT22;15314;49.248;6.968;2023-02-01T05:07:50;6.50;99.90
27978;DHT22;15314;49.248;6.968;2023-02-01T05:08:50;6.50;99.90
27978;DHT22;15314;49.248;6.968;2023-02-01T05:09:51;6.50;99.90
27978;DHT22;15314;49.248;6.968;2023-02-01T05:10:51;6.50;99.90
27978;DHT22;15314;49.248;6.968;2023-02-01T05:11:52;6.50;99.90
27978;DHT22;15314;49.248;6.968;2023-02-01T05:13:11;6.50;99.90
27978;DHT22;15314;49.248;6.968;2023-02-01T05:14:30;6.60;99.90
27978;DHT22;15314;49.248;6.968;2023-02-01T05:15:31;6.60;99.90
27978;DHT22;15314;49.248;6.968;2023-02-01T05:16:32;6.60;99.90
27978;DHT22;15314;49.248;6.968;2023-02-01T05:17:32;6.60;99.90
27978;DHT22;15314;49.248;6.968;2023-02-01T05:18:33;6.60;99.90
27978;DHT22;15314;49.248;6.968;2023-02-01T05:19:33;6.60;99.90
27978;DHT22;15314;49.248;6.968;2023-02-01T05:20:34;6.50;99.90
27978;DHT22;15314;49.248;6.968;2023-02-01T05:21:35;6.60;99.90
27978;DHT22;15314;49.248;6.968;2023-02-01T05:22:35;6.60;99.90
27978;DHT22;15314;49.248;6.968;2023-02-01T05:23:36;6.50;99.90
27978;DHT22;15314;49.248;6.968;2023-02-01T05:24:56;6.60;99.90
27978;DHT22;15314;49.248;6.968;2023-02-01T05:26:01;6.50;99.90
27978;DHT22;15314;49.248;6.968;2023-02-01T05:27:01;6.50;99.90
27978;DHT22;15314;49.248;6.968;2023-02-01T05:28:02;6.50;99.90
27978;DHT22;15314;49.248;6.968;2023-02-01T05:29:04;6.50;99.90
27978;DHT22;15314;49.248;6.968;2023-02-01T05:30:06;6.50;99.90
27978;DHT22;15314;49.248;6.968;2023-02-01T05:31:10;6.40;99.90
27978;DHT22;15314;49.248;6.968;2023-02-01T05:32:11;6.40;99.90
27978;DHT22;15314;49.248;6.968;2023-02-01T05:33:11;6.40;99.90
27978;DHT22;15314;49.248;6.968;2023-02-01T05:34:13;6.30;99.90
27978;DHT22;15314;49.248;6.968;2023-02-01T05:35:14;6.30;99.90
27978;DHT22;15314;49.248;6.968;2023-02-01T05:36:14;6.30;99.90
27978;DHT22;15314;49.248;6.968;2023-02-01T05:37:15;6.40;99.90
27978;DHT22;15314;49.248;6.968;2023-02-01T05:38:15;6.40;99.90
27978;DHT22;15314;49.248;6.968;2023-02-01T05:39:16;6.50;99.90
27978;DHT22;15314;49.248;6.968;2023-02-01T05:40:17;6.50;99.90
27978;DHT22;15314;49.248;6.968;2023-02-01T05:41:17;6.50;99.90
27978;DHT22;15314;49.248;6.968;2023-02-01T05:42:18;6.50;99.90
27978;DHT22;15314;49.248;6.968;2023-02-01T05:43:19;6.50;99.90
27978;DHT22;15314;49.248;6.968;2023-02-01T05:44:19;6.50;99.90
27978;DHT22;15314;49.248;6.968;2023-02-01T05:45:20;6.60;99.90
27978;DHT22;15314;49.248;6.968;2023-02-01T05:46:21;6.50;99.90
27978;DHT22;15314;49.248;6.968;2023-02-01T05:47:24;6.60;99.90
27978;DHT22;15314;49.248;6.968;2023-02-01T05:48:25;6.60;99.90
27978;DHT22;15314;49.248;6.968;2023-02-01T05:49:26;6.70;99.90
27978;DHT22;15314;49.248;6.968;2023-02-01T05:50:26;6.70;99.90
27978;DHT22;15314;49.248;6.968;2023-02-01T05:51:27;6.70;99.90
27978;DHT22;15314;49.248;6.968;2023-02-01T05:52:27;6.70;99.90
27978;DHT22;15314;49.248;6.968;2023-02-01T05:53:28;6.80;99.90
27978;DHT22;15314;49.248;6.968;2023-02-01T05:54:29;6.80;99.90
27978;DHT22;15314;49.248;6.968;2023-02-01T05:55:29;6.70;99.90
27978;DHT22;15314;49.248;6.968;2023-02-01T05:56:30;6.80;99.90
27978;DHT22;15314;49.248;6.968;2023-02-01T05:57:30;6.80;99.90
27978;DHT22;15314;49.248;6.968;2023-02-01T05:58:31;6.90;99.90
27978;DHT22;15314;49.248;6.968;2023-02-01T05:59:32;6.90;99.90
27978;DHT22;15314;49.248;6.968;2023-02-01T06:00:32;6.80;99.90
27978;DHT22;15314;49.248;6.968;2023-02-01T06:01:33;6.80;99.90
27978;DHT22;15314;49.248;6.968;2023-02-01T06:02:33;6.80;99.90
27978;DHT22;15314;49.248;6.968;2023-02-01T06:03:34;6.70;99.90
27978;DHT22;15314;49.248;6.968;2023-02-01T06:04:35;6.70;99.90
27978;DHT22;15314;49.248;6.968;2023-02-01T06:05:36;6.70;99.90
27978;DHT22;15314;49.248;6.968;2023-02-01T06:06:37;6.70;99.90
27978;DHT22;15314;49.248;6.968;2023-02-01T06:07:37;6.70;99.90
27978;DHT22;15314;49.248;6.968;2023-02-01T06:08:38;6.70;99.90
27978;DHT22;15314;49.248;6.968;2023-02-01T06:09:40;6.70;99.90
27978;DHT22;15314;49.248;6.968;2023-02-01T06:10:41;6.70;99.90
27978;DHT22;15314;49.248;6.968;2023-02-01T06:11:41;6.80;99.90
27978;DHT22;15314;49.248;6.968;2023-02-01T06:12:42;6.80;99.90
27978;DHT22;15314;49.248;6.968;2023-02-01T06:13:45;6.90;99.90
27978;DHT22;15314;49.248;6.968;2023-02-01T06:14:45;6.90;99.90
27978;DHT22;15314;49.248;6.968;2023-02-01T06:15:46;6.80;99.90
27978;DHT22;15314;49.248;6.968;2023-02-01T06:16:47;6.80;99.90
27978;DHT22;15314;49.248;6.968;2023-02-01T06:17:47;6.80;99.90
27978;DHT22;15314;49.248;6.968;2023-02-01T06:18:48;6.80;99.90
27978;DHT22;15314;49.248;6.968;2023-02-01T06:19:49;6.80;99.90
27978;DHT22;15314;49.248;6.968;2023-02-01T06:20:56;6.80;99.90
27978;DHT22;15314;49.248;6.968;2023-02-01T06:21:57;6.80;99.90
27978;DHT22;15314;49.248;6.968;2023-02-01T06:22:57;6.80;99.90
27978;DHT22;15314;49.248;6.968;2023-02-01T06:23:58;6.90;99.90
27978;DHT22;15314;49.248;6.968;2023-02-01T06:24:59;6.90;99.90
27978;DHT22;15314;49.248;6.968;2023-02-01T06:26:02;6.80;99.90
27978;DHT22;15314;49.248;6.968;2023-02-01T06:27:03;6.80;99.90
27978;DHT22;15314;49.248;6.968;2023-02-01T06:28:04;6.80;99.90
27978;DHT22;15314;49.248;6.968;2023-02-01T06:29:07;6.80;99.90
27978;DHT22;15314;49.248;6.968;2023-02-01T06:30:08;6.70;99.90
27978;DHT22;15314;49.248;6.968;2023-02-01T06:31:09;6.80;99.90
27978;DHT22;15314;49.248;6.968;2023-02-01T06:32:10;6.70;99.90
27978;DHT22;15314;49.248;6.968;2023-02-01T06:33:11;6.80;99.90
27978;DHT22;15314;49.248;6.968;2023-02-01T06:34:12;6.80;99.90
27978;DHT22;15314;49.248;6.968;2023-02-01T06:35:13;6.80;99.90
27978;DHT22;15314;49.248;6.968;2023-02-01T06:36:16;6.80;99.90
27978;DHT22;15314;49.248;6.968;2023-02-01T06:37:19;6.70;99.90
27978;DHT22;15314;49.248;6.968;2023-02-01T06:38:19;6.70;99.90
27978;DHT22;15314;49.248;6.968;2023-02-01T06:39:20;6.70;99.90
27978;DHT22;15314;49.248;6.968;2023-02-01T06:40:21;6.70;99.90
27978;DHT22;15314;49.248;6.968;2023-02-01T06:41:22;6.70;99.90
27978;DHT22;15314;49.248;6.968;2023-02-01T06:42:23;6.70;99.90
27978;DHT22;15314;49.248;6.968;2023-02-01T06:43:25;6.70;99.90
27978;DHT22;15314;49.248;6.968;2023-02-01T06:44:26;6.80;99.90
27978;DHT22;15314;49.248;6.968;2023-02-01T06:45:26;6.70;99.90
27978;DHT22;15314;49.248;6.968;2023-02-01T06:46:27;6.70;99.90
27978;DHT22;15314;49.248;6.968;2023-02-01T06:47:28;6.70;99.90
27978;DHT22;15314;49.248;6.968;2023-02-01T06:48:28;6.70;99.90
27978;DHT22;15314;49.248;6.968;2023-02-01T06:49:29;6.80;99.90
27978;DHT22;15314;49.248;6.968;2023-02-01T06:50:30;6.80;99.90
27978;DHT22;15314;49.248;6.968;2023-02-01T06:51:30;6.80;99.90
27978;DHT22;15314;49.248;6.968;2023-02-01T06:52:31;6.70;99.90
27978;DHT22;15314;49.248;6.968;2023-02-01T06:53:32;6.70;99.90
27978;DHT22;15314;49.248;6.968;2023-02-01T06:54:32;6.70;99.90
27978;DHT22;15314;49.248;6.968;2023-02-01T06:55:34;6.70;99.90
27978;DHT22;15314;49.248;6.968;2023-02-01T06:56:34;6.60;99.90
27978;DHT22;15314;49.248;6.968;2023-02-01T06:57:35;6.60;99.90
27978;DHT22;15314;49.248;6.968;2023-02-01T06:58:36;6.60;99.90
27978;DHT22;15314;49.248;6.968;2023-02-01T06:59:37;6.50;99.90
27978;DHT22;15314;49.248;6.968;2023-02-01T07:00:38;6.60;99.90
27978;DHT22;15314;49.248;6.968;2023-02-01T07:01:39;6.50;99.90
27978;DHT22;15314;49.248;6.968;2023-02-01T07:02:39;6.60;99.90
27978;DHT22;15314;49.248;6.968;2023-02-01T07:03:40;6.70;99.90
27978;DHT22;15314;49.248;6.968;2023-02-01T07:04:41;6.60;99.90
27978;DHT22;15314;49.248;6.968;2023-02-01T07:05:41;6.60;99.90
27978;DHT22;15314;49.248;6.968;2023-02-01T07:06:42;6.70;99.90
27978;DHT22;15314;49.248;6.968;2023-02-01T07:07:43;6.60;99.90
27978;DHT22;15314;49.248;6.968;2023-02-01T07:08:44;6.60;99.90
27978;DHT22;15314;49.248;6.968;2023-02-01T07:09:45;6.50;99.90
27978;DHT22;15314;49.248;6.968;2023-02-01T07:10:45;6.60;99.90
27978;DHT22;15314;49.248;6.968;2023-02-01T07:11:46;6.50;99.90
27978;DHT22;15314;49.248;6.968;2023-02-01T07:12:47;6.50;99.90